Hidden Hills, California
Current Conditions -  °F | °C
As of 4:51 PM on Tuesday 25 Nov 2014 (Local Time) from KVNY Reporting Station
Clear Clear  
Wind Chill: 73°   Ceiling: Unl
Heat Index: 73°   Visibility: 10mi
Dew Point: 16°   Wind: 0mph
Humidity: 11%   Direction: NA
Pressure: 30.26"   Gusts: NA
Location:  34.1257°N, 118.676°W
Report Text: KVNY 260051Z 00000KT 10SM CLR 23/M09 A3026 RMK AO2 SLP242 T02281089
Loading
Personal Weather Stations






























Interactive Weather Map New forecast layout! Learn more

10-Day Weather Forecast

Advertisements
Track Severe Weather on mobile